createdAt,value
2019-03-25T00:02:08.491Z,8.00
2019-03-25T00:04:39.512Z,8.00
2019-03-25T00:07:10.403Z,8.00
2019-03-25T00:09:41.234Z,8.10
2019-03-25T00:12:12.134Z,8.10
2019-03-25T00:14:42.970Z,8.10
2019-03-25T00:17:13.889Z,8.10
2019-03-25T00:19:44.815Z,8.00
2019-03-25T00:22:15.715Z,8.10
2019-03-25T00:24:46.607Z,8.10
2019-03-25T00:27:17.581Z,8.00
2019-03-25T00:29:48.407Z,8.00
2019-03-25T00:32:19.295Z,8.10
2019-03-25T00:34:50.203Z,8.10
2019-03-25T00:37:21.187Z,8.10
2019-03-25T00:39:52.031Z,8.10
2019-03-25T00:42:22.934Z,8.10
2019-03-25T00:44:53.826Z,8.20
2019-03-25T00:47:24.716Z,8.20
2019-03-25T00:49:55.633Z,8.20
2019-03-25T00:52:26.517Z,8.30
2019-03-25T00:54:57.627Z,8.30
2019-03-25T00:57:28.459Z,8.30
2019-03-25T00:59:59.339Z,8.40
2019-03-25T01:02:30.244Z,8.50
2019-03-25T01:05:01.132Z,8.40
2019-03-25T01:07:32.035Z,8.40
2019-03-25T01:10:02.828Z,8.40
2019-03-25T01:12:33.751Z,8.40
2019-03-25T01:15:04.595Z,8.40
2019-03-25T01:17:35.483Z,8.40
2019-03-25T01:20:06.993Z,8.40
2019-03-25T01:22:37.851Z,8.50
2019-03-25T01:25:08.819Z,8.50
2019-03-25T01:27:39.695Z,8.50
2019-03-25T01:30:10.931Z,8.40
2019-03-25T01:32:41.811Z,8.40
2019-03-25T01:35:12.719Z,8.40
2019-03-25T01:37:44.551Z,8.40
2019-03-25T01:40:15.390Z,8.30
2019-03-25T01:42:46.279Z,8.40
2019-03-25T01:45:17.158Z,8.40
2019-03-25T01:47:48.123Z,8.40
2019-03-25T01:50:19.006Z,8.50
2019-03-25T01:52:49.900Z,8.50
2019-03-25T01:55:20.845Z,8.40
2019-03-25T01:57:51.959Z,8.40
2019-03-25T02:00:22.872Z,8.40
2019-03-25T02:02:53.763Z,8.40
2019-03-25T02:05:24.666Z,8.40
2019-03-25T02:07:55.393Z,8.40
2019-03-25T02:10:26.183Z,8.30
2019-03-25T02:12:57.004Z,8.30
2019-03-25T02:15:27.918Z,8.30
2019-03-25T02:17:58.815Z,8.30
2019-03-25T02:20:29.719Z,8.30
2019-03-25T02:23:00.802Z,8.30
2019-03-25T02:25:31.714Z,8.30
2019-03-25T02:28:02.613Z,8.40
2019-03-25T02:30:33.493Z,8.40
2019-03-25T02:33:04.417Z,8.40
2019-03-25T02:35:35.328Z,8.30
2019-03-25T02:38:06.235Z,8.30
2019-03-25T02:40:37.122Z,8.30
2019-03-25T02:43:08.062Z,8.30
2019-03-25T02:45:38.964Z,8.30
2019-03-25T02:48:09.852Z,8.20
2019-03-25T02:50:40.743Z,8.20
2019-03-25T02:53:11.628Z,8.20
2019-03-25T02:55:42.811Z,8.10
2019-03-25T02:58:13.722Z,8.10
2019-03-25T03:00:44.641Z,8.10
2019-03-25T03:03:15.502Z,8.10
2019-03-25T03:05:46.414Z,8.10
2019-03-25T03:08:17.374Z,8.10
2019-03-25T03:10:48.250Z,8.10
2019-03-25T03:13:19.130Z,8.10
2019-03-25T03:15:50.035Z,8.00
2019-03-25T03:18:20.953Z,8.00
2019-03-25T03:20:51.935Z,7.90
2019-03-25T03:23:22.850Z,7.80
2019-03-25T03:25:57.738Z,7.80
2019-03-25T03:28:26.277Z,7.70
2019-03-25T03:30:57.236Z,7.70
2019-03-25T03:33:28.029Z,7.80
2019-03-25T03:35:58.978Z,7.90
2019-03-25T03:38:29.814Z,7.80
2019-03-25T03:41:00.919Z,7.80
2019-03-25T03:43:31.796Z,7.80
2019-03-25T03:46:02.713Z,7.70
2019-03-25T03:48:33.580Z,7.70
2019-03-25T03:51:04.522Z,7.70
2019-03-25T03:53:35.604Z,7.70
2019-03-25T03:56:13.712Z,7.60
2019-03-25T03:58:40.630Z,7.60
2019-03-25T04:01:15.535Z,7.60
2019-03-25T04:03:46.484Z,7.60
2019-03-25T04:06:17.363Z,7.50
2019-03-25T04:08:48.326Z,7.50
2019-03-25T04:11:19.200Z,7.50
2019-03-25T04:13:50.127Z,7.40
2019-03-25T04:16:21.119Z,7.30
2019-03-25T04:18:52.001Z,7.30
2019-03-25T04:21:22.887Z,7.40
2019-03-25T04:23:53.776Z,7.50
2019-03-25T04:26:28.937Z,7.50
2019-03-25T04:28:57.237Z,7.50
2019-03-25T04:31:28.137Z,7.50
2019-03-25T04:33:59.035Z,7.50
2019-03-25T04:36:29.925Z,7.50
2019-03-25T04:39:00.859Z,7.50
2019-03-25T04:41:31.645Z,7.50
2019-03-25T04:44:02.934Z,7.50
2019-03-25T04:46:33.746Z,7.50
2019-03-25T04:49:04.602Z,7.40
2019-03-25T04:51:35.476Z,7.40
2019-03-25T04:54:06.351Z,7.40
2019-03-25T04:56:39.989Z,7.40
2019-03-25T04:59:09.743Z,7.50
2019-03-25T05:01:40.654Z,7.40
2019-03-25T05:04:11.441Z,7.40
2019-03-25T05:06:42.333Z,7.40
2019-03-25T05:09:13.146Z,7.30
2019-03-25T05:11:44.128Z,7.30
2019-03-25T05:14:15.046Z,7.20
2019-03-25T05:16:45.955Z,7.30
2019-03-25T05:19:16.863Z,7.30
2019-03-25T05:21:47.791Z,7.60
2019-03-25T05:24:18.671Z,7.80
2019-03-25T05:26:51.331Z,8.00
2019-03-25T05:29:22.070Z,8.00
2019-03-25T05:31:52.959Z,8.00
2019-03-25T05:34:23.857Z,8.00
2019-03-25T05:36:54.746Z,8.20
2019-03-25T05:39:25.601Z,8.20
2019-03-25T05:41:56.482Z,8.40
2019-03-25T05:44:27.455Z,8.40
2019-03-25T05:46:58.255Z,8.60
2019-03-25T05:49:29.254Z,8.70
2019-03-25T05:52:00.130Z,8.80
2019-03-25T05:54:31.038Z,8.90
2019-03-25T05:57:02.927Z,8.80
2019-03-25T05:59:33.911Z,8.80
2019-03-25T06:02:04.794Z,8.90
2019-03-25T06:04:35.695Z,9.20
2019-03-25T06:07:06.494Z,9.30
2019-03-25T06:09:37.391Z,9.40
2019-03-25T06:12:08.214Z,9.40
2019-03-25T06:14:39.070Z,9.50
2019-03-25T06:17:09.990Z,9.50
2019-03-25T06:19:42.326Z,9.50
2019-03-25T06:22:13.232Z,9.50
2019-03-25T06:24:44.175Z,9.40
2019-03-25T06:27:15.346Z,9.50
2019-03-25T06:29:46.225Z,9.50
2019-03-25T06:32:17.102Z,9.40
2019-03-25T06:34:47.995Z,9.30
2019-03-25T06:37:19.132Z,9.30
2019-03-25T06:39:49.947Z,9.40
2019-03-25T06:42:20.855Z,9.40
2019-03-25T06:44:51.740Z,9.40
2019-03-25T06:47:22.643Z,9.40
2019-03-25T06:49:53.463Z,9.40
2019-03-25T06:52:24.267Z,9.60
2019-03-25T06:54:55.186Z,9.80
2019-03-25T06:57:26.158Z,9.90
2019-03-25T06:59:57.018Z,10.10
2019-03-25T07:02:27.902Z,10.10
2019-03-25T07:04:58.804Z,10.20
2019-03-25T07:07:29.699Z,10.10
2019-03-25T07:10:00.597Z,10.10
2019-03-25T07:12:31.620Z,10.10
2019-03-25T07:15:02.575Z,10.10
2019-03-25T07:17:33.487Z,10.20
2019-03-25T07:20:04.578Z,10.30
2019-03-25T07:22:35.622Z,10.40
2019-03-25T07:25:06.538Z,10.50
2019-03-25T07:27:37.519Z,10.50
2019-03-25T07:30:08.450Z,10.50
2019-03-25T07:32:39.288Z,10.60
2019-03-25T07:35:10.283Z,11.00
2019-03-25T07:37:41.183Z,11.10
2019-03-25T07:40:12.375Z,11.10
2019-03-25T07:42:43.190Z,11.10
2019-03-25T07:45:14.319Z,11.10
2019-03-25T07:47:45.140Z,11.10
2019-03-25T07:50:16.142Z,11.30
2019-03-25T07:52:46.961Z,11.70
2019-03-25T07:55:17.887Z,11.90
2019-03-25T07:57:48.886Z,12.20
2019-03-25T08:00:20.208Z,12.30
2019-03-25T08:02:51.121Z,12.60
2019-03-25T08:05:22.006Z,12.80
2019-03-25T08:07:52.932Z,13.00
2019-03-25T08:10:34.026Z,13.20
2019-03-25T08:13:05.160Z,13.30
2019-03-25T08:15:36.175Z,13.30
2019-03-25T08:18:07.145Z,13.50
2019-03-25T08:20:38.031Z,13.50
2019-03-25T08:23:08.853Z,13.70
2019-03-25T08:25:39.767Z,13.90
2019-03-25T08:28:10.666Z,14.10
2019-03-25T08:30:41.574Z,14.50
2019-03-25T08:33:12.393Z,14.80
2019-03-25T08:35:43.280Z,14.80
2019-03-25T08:38:14.187Z,14.70
2019-03-25T08:40:45.031Z,14.90
2019-03-25T08:43:15.934Z,15.20
2019-03-25T08:45:46.778Z,15.40
2019-03-25T08:48:17.683Z,15.60
2019-03-25T08:50:48.547Z,15.70
2019-03-25T08:53:19.446Z,15.70
2019-03-25T08:55:50.264Z,15.80
2019-03-25T08:58:21.171Z,15.80
2019-03-25T09:00:52.003Z,15.80
2019-03-25T09:03:22.838Z,15.80
2019-03-25T09:05:53.655Z,15.90
2019-03-25T09:08:24.566Z,16.10
2019-03-25T09:10:55.410Z,16.10
2019-03-25T09:13:26.303Z,16.30
2019-03-25T09:15:57.138Z,16.30
2019-03-25T09:18:27.959Z,16.40
2019-03-25T09:20:58.902Z,16.50
2019-03-25T09:23:29.788Z,16.80
2019-03-25T09:26:00.991Z,17.00
2019-03-25T09:28:31.815Z,17.20
2019-03-25T09:31:08.378Z,17.10
2019-03-25T09:33:39.351Z,16.90
2019-03-25T09:36:10.365Z,16.70
2019-03-25T09:38:41.421Z,16.50
2019-03-25T09:41:13.346Z,16.30
2019-03-25T09:43:44.468Z,16.10
2019-03-25T09:46:15.523Z,15.90
2019-03-25T09:48:46.535Z,15.70
2019-03-25T09:51:19.131Z,15.40
2019-03-25T09:53:50.031Z,15.10
2019-03-25T09:56:20.980Z,14.90
2019-03-25T09:58:51.870Z,14.90
2019-03-25T10:01:22.774Z,15.00
2019-03-25T10:03:53.658Z,15.10
2019-03-25T10:06:24.500Z,14.80
2019-03-25T10:08:55.403Z,14.60
2019-03-25T10:11:26.279Z,14.60
2019-03-25T10:13:57.202Z,14.60
2019-03-25T10:16:28.039Z,14.70
2019-03-25T10:18:59.004Z,14.90
2019-03-25T10:21:29.887Z,15.00
2019-03-25T10:24:00.829Z,15.00
2019-03-25T10:26:31.785Z,15.10
2019-03-25T10:29:02.594Z,15.10
2019-03-25T10:31:33.415Z,15.10
2019-03-25T10:34:04.250Z,15.00
2019-03-25T10:36:35.068Z,14.70
2019-03-25T10:39:07.745Z,14.50
2019-03-25T10:41:38.711Z,14.40
2019-03-25T10:44:09.585Z,14.20
2019-03-25T10:46:40.405Z,14.10
2019-03-25T10:49:11.315Z,14.10
2019-03-25T10:51:42.211Z,14.10
2019-03-25T10:54:13.039Z,14.20
2019-03-25T10:56:49.103Z,14.20
2019-03-25T10:59:16.450Z,14.30
2019-03-25T11:01:47.279Z,14.40
2019-03-25T11:04:18.166Z,14.50
2019-03-25T11:06:48.998Z,14.50
2019-03-25T11:09:19.895Z,14.60
2019-03-25T11:11:50.739Z,14.60
2019-03-25T11:14:21.651Z,14.60
2019-03-25T11:16:52.562Z,14.60
2019-03-25T11:19:23.471Z,14.50
2019-03-25T11:21:54.287Z,14.50
2019-03-25T11:24:25.140Z,14.60
2019-03-25T11:26:56.105Z,14.70
2019-03-25T11:29:26.945Z,14.80
2019-03-25T11:31:57.883Z,15.00
2019-03-25T11:34:28.727Z,15.10
2019-03-25T11:36:59.634Z,15.30
2019-03-25T11:39:30.473Z,15.50
2019-03-25T11:42:01.363Z,15.60
2019-03-25T11:44:32.303Z,15.60
2019-03-25T11:47:03.130Z,15.60
2019-03-25T11:49:34.015Z,15.50
2019-03-25T11:52:04.926Z,15.30
2019-03-25T11:54:35.744Z,15.30
2019-03-25T11:57:06.665Z,15.20
2019-03-25T11:59:37.591Z,15.10
2019-03-25T12:02:17.271Z,14.80
2019-03-25T12:04:41.044Z,14.70
2019-03-25T12:07:11.922Z,14.70
2019-03-25T12:09:45.761Z,14.50
2019-03-25T12:12:16.671Z,14.40
2019-03-25T12:14:47.622Z,14.40
2019-03-25T12:17:18.562Z,14.40
2019-03-25T12:19:49.403Z,14.40
2019-03-25T12:22:20.295Z,14.30
2019-03-25T12:24:51.407Z,14.20
2019-03-25T12:27:22.349Z,14.10
2019-03-25T12:29:53.291Z,13.90
2019-03-25T12:32:24.239Z,13.80
2019-03-25T12:34:55.132Z,13.60
2019-03-25T12:37:26.035Z,13.50
2019-03-25T12:39:56.902Z,13.30
2019-03-25T12:42:27.799Z,13.10
2019-03-25T12:44:58.706Z,13.00
2019-03-25T12:47:29.599Z,12.90
2019-03-25T12:50:00.539Z,12.90
2019-03-25T12:52:31.256Z,12.80
2019-03-25T12:55:02.304Z,12.70
2019-03-25T12:57:33.211Z,12.70
2019-03-25T13:00:04.171Z,12.60
2019-03-25T13:02:35.079Z,12.70
2019-03-25T13:05:06.161Z,12.70
2019-03-25T13:07:37.070Z,12.70
2019-03-25T13:10:08.215Z,12.90
2019-03-25T13:12:39.131Z,13.00
2019-03-25T13:15:10.016Z,13.00
2019-03-25T13:17:41.182Z,13.10
2019-03-25T13:20:12.146Z,13.10
2019-03-25T13:22:43.010Z,13.20
2019-03-25T13:25:13.942Z,13.20
2019-03-25T13:27:44.853Z,13.30
2019-03-25T13:30:15.909Z,13.60
2019-03-25T13:32:46.842Z,13.70
2019-03-25T13:35:17.759Z,13.80
2019-03-25T13:37:48.619Z,13.90
2019-03-25T13:40:19.523Z,14.00
2019-03-25T13:42:50.419Z,14.10
2019-03-25T13:45:21.401Z,14.10
2019-03-25T13:47:52.303Z,14.20
2019-03-25T13:50:23.198Z,14.20
2019-03-25T13:52:54.072Z,14.30
2019-03-25T13:55:26.683Z,14.30
2019-03-25T13:57:57.675Z,14.20
2019-03-25T14:00:39.110Z,14.10
2019-03-25T14:03:10.897Z,14.00
2019-03-25T14:05:41.798Z,13.90
2019-03-25T14:08:12.623Z,13.80
2019-03-25T14:10:43.514Z,13.60
2019-03-25T14:13:14.527Z,13.50
2019-03-25T14:15:45.339Z,13.30
2019-03-25T14:18:16.298Z,13.10
2019-03-25T14:20:47.126Z,13.00
2019-03-25T14:23:18.047Z,12.70
2019-03-25T14:25:48.981Z,12.50
2019-03-25T14:28:19.863Z,12.50
2019-03-25T14:30:50.778Z,12.40
2019-03-25T14:33:21.679Z,12.30
2019-03-25T14:35:52.852Z,12.30
2019-03-25T14:38:23.739Z,12.20
2019-03-25T14:40:54.616Z,12.20
2019-03-25T14:43:25.531Z,12.20
2019-03-25T14:45:56.334Z,12.10
2019-03-25T14:48:27.163Z,12.00
2019-03-25T14:50:58.042Z,11.90
2019-03-25T14:53:29.018Z,11.80
2019-03-25T14:55:59.855Z,11.80
2019-03-25T14:58:30.770Z,11.70
2019-03-25T15:01:01.695Z,11.60
2019-03-25T15:03:32.578Z,11.50
2019-03-25T15:06:03.413Z,11.30
2019-03-25T15:08:34.230Z,11.20
2019-03-25T15:11:05.111Z,11.00
2019-03-25T15:13:35.998Z,11.00
2019-03-25T15:16:06.824Z,11.00
2019-03-25T15:18:37.731Z,10.90
2019-03-25T15:21:08.602Z,10.70
2019-03-25T15:23:39.523Z,10.70
2019-03-25T15:26:10.473Z,10.60
2019-03-25T15:28:41.291Z,10.50
2019-03-25T15:31:14.023Z,10.40
2019-03-25T15:33:44.938Z,10.30
2019-03-25T15:36:15.771Z,10.30
2019-03-25T15:38:46.650Z,10.20
2019-03-25T15:41:17.679Z,10.10
2019-03-25T15:43:48.674Z,10.10
2019-03-25T15:46:19.502Z,10.10
2019-03-25T15:48:50.390Z,10.00
2019-03-25T15:51:21.195Z,10.00
2019-03-25T15:53:52.091Z,10.10
2019-03-25T15:56:22.982Z,10.10
2019-03-25T15:58:53.811Z,10.00
2019-03-25T16:01:24.803Z,10.00
2019-03-25T16:03:55.755Z,9.90
2019-03-25T16:06:26.619Z,9.80
2019-03-25T16:08:57.528Z,9.90
2019-03-25T16:11:28.404Z,9.80
2019-03-25T16:13:59.331Z,9.80
2019-03-25T16:16:30.217Z,9.80
2019-03-25T16:19:01.120Z,9.80
2019-03-25T16:21:32.026Z,9.70
2019-03-25T16:24:02.928Z,9.60
2019-03-25T16:26:33.826Z,9.60
2019-03-25T16:29:04.702Z,9.60
2019-03-25T16:31:35.627Z,9.60
2019-03-25T16:34:06.482Z,9.50
2019-03-25T16:36:37.378Z,9.60
2019-03-25T16:39:08.722Z,9.50
2019-03-25T16:41:39.526Z,9.40
2019-03-25T16:44:10.418Z,9.40
2019-03-25T16:46:41.406Z,9.30
2019-03-25T16:49:12.305Z,9.20
2019-03-25T16:51:43.239Z,9.30
2019-03-25T16:54:14.126Z,9.40
2019-03-25T16:56:45.047Z,9.30
2019-03-25T16:59:15.938Z,9.40
2019-03-25T17:01:46.742Z,9.40
2019-03-25T17:04:17.575Z,9.50
2019-03-25T17:06:48.418Z,9.50
2019-03-25T17:09:19.223Z,9.50
2019-03-25T17:11:50.357Z,9.50
2019-03-25T17:14:21.231Z,9.50
2019-03-25T17:16:52.238Z,9.50
2019-03-25T17:19:23.058Z,9.50
2019-03-25T17:21:58.305Z,9.50
2019-03-25T17:24:26.390Z,9.60
2019-03-25T17:26:57.378Z,9.50
2019-03-25T17:29:28.184Z,9.50
2019-03-25T17:31:59.093Z,9.50
2019-03-25T17:34:29.998Z,9.40
2019-03-25T17:37:00.878Z,9.40
2019-03-25T17:39:31.774Z,9.40
2019-03-25T17:42:02.583Z,9.40
2019-03-25T17:44:33.407Z,9.30
2019-03-25T17:47:04.318Z,9.20
2019-03-25T17:49:35.136Z,9.20
2019-03-25T17:52:06.039Z,9.30
2019-03-25T17:54:36.865Z,9.10
2019-03-25T17:57:07.751Z,9.10
2019-03-25T17:59:38.737Z,9.10
2019-03-25T18:02:09.634Z,9.00
2019-03-25T18:04:40.459Z,9.00
2019-03-25T18:07:11.614Z,9.00
2019-03-25T18:09:42.426Z,9.00
2019-03-25T18:12:13.331Z,9.00
2019-03-25T18:14:44.219Z,8.90
2019-03-25T18:17:15.137Z,8.90
2019-03-25T18:19:46.034Z,9.00
2019-03-25T18:22:16.924Z,8.90
2019-03-25T18:24:47.802Z,9.00
2019-03-25T18:27:18.743Z,8.90
2019-03-25T18:29:49.775Z,8.90
2019-03-25T18:32:21.382Z,8.80
2019-03-25T18:34:52.325Z,8.80
2019-03-25T18:37:23.240Z,8.80
2019-03-25T18:39:54.175Z,8.70
2019-03-25T18:42:25.167Z,8.60
2019-03-25T18:44:56.643Z,8.50
2019-03-25T18:47:27.582Z,8.50
2019-03-25T18:49:58.505Z,8.40
2019-03-25T18:52:31.214Z,8.40
2019-03-25T18:55:03.372Z,8.40
2019-03-25T18:57:35.272Z,8.50
2019-03-25T19:00:08.676Z,8.40
2019-03-25T19:02:39.794Z,8.40
2019-03-25T19:05:10.783Z,8.40
2019-03-25T19:07:43.422Z,8.40
2019-03-25T19:10:18.126Z,8.30
2019-03-25T19:12:49.107Z,8.30
2019-03-25T19:15:19.993Z,8.30
2019-03-25T19:17:50.873Z,8.20
2019-03-25T19:20:22.027Z,8.20
2019-03-25T19:22:52.906Z,8.20
2019-03-25T19:25:23.952Z,8.20
2019-03-25T19:27:54.886Z,8.20
2019-03-25T19:30:25.783Z,8.20
2019-03-25T19:32:56.904Z,8.20
2019-03-25T19:35:30.045Z,8.10
2019-03-25T19:38:00.382Z,8.00
2019-03-25T19:40:31.278Z,8.00
2019-03-25T19:43:02.143Z,7.90
2019-03-25T19:45:33.050Z,7.90
2019-03-25T19:48:03.955Z,7.80
2019-03-25T19:50:34.823Z,7.80
2019-03-25T19:53:05.738Z,7.80
2019-03-25T19:55:36.614Z,7.80
2019-03-25T19:58:07.500Z,7.80
2019-03-25T20:00:40.012Z,7.80
2019-03-25T20:03:11.184Z,7.90
2019-03-25T20:05:42.206Z,7.80
2019-03-25T20:08:13.307Z,7.80
2019-03-25T20:10:44.366Z,7.80
2019-03-25T20:13:15.278Z,7.70
2019-03-25T20:15:47.495Z,7.60
2019-03-25T20:18:18.458Z,7.60
2019-03-25T20:20:49.404Z,7.60
2019-03-25T20:23:20.582Z,7.50
2019-03-25T20:25:51.515Z,7.50
2019-03-25T20:28:22.582Z,7.50
2019-03-25T20:30:53.566Z,7.50
2019-03-25T20:33:24.460Z,7.50
2019-03-25T20:35:55.366Z,7.50
2019-03-25T20:38:26.223Z,7.50
2019-03-25T20:40:57.193Z,7.50
2019-03-25T20:43:28.165Z,7.50
2019-03-25T20:45:59.076Z,7.60
2019-03-25T20:48:30.127Z,7.60
2019-03-25T20:51:00.991Z,7.50
2019-03-25T20:53:32.095Z,7.40
2019-03-25T20:56:03.751Z,7.40
2019-03-25T20:58:34.566Z,7.40
2019-03-25T21:01:05.492Z,7.30
2019-03-25T21:03:36.354Z,7.30
2019-03-25T21:06:07.189Z,7.20
2019-03-25T21:08:38.086Z,7.20
2019-03-25T21:11:09.097Z,7.10
2019-03-25T21:13:39.990Z,7.00
2019-03-25T21:16:11.048Z,6.90
2019-03-25T21:18:42.017Z,6.90
2019-03-25T21:21:13.002Z,6.90
2019-03-25T21:23:43.920Z,6.90
2019-03-25T21:26:14.929Z,6.80
2019-03-25T21:28:45.763Z,6.70
2019-03-25T21:31:16.632Z,6.70
2019-03-25T21:33:47.562Z,6.70
2019-03-25T21:36:18.466Z,6.70
2019-03-25T21:38:49.308Z,6.60
2019-03-25T21:41:20.196Z,6.60
2019-03-25T21:43:51.104Z,6.60
2019-03-25T21:46:21.989Z,6.60
2019-03-25T21:48:52.920Z,6.70
2019-03-25T21:51:23.848Z,6.80
2019-03-25T21:53:54.790Z,6.70
2019-03-25T21:56:25.719Z,6.80
2019-03-25T21:58:56.645Z,6.80
2019-03-25T22:01:27.546Z,6.60
2019-03-25T22:03:58.443Z,6.50
2019-03-25T22:06:29.359Z,6.40
2019-03-25T22:09:00.258Z,6.30
2019-03-25T22:11:31.154Z,6.30
2019-03-25T22:14:02.055Z,6.20
2019-03-25T22:16:32.952Z,6.10
2019-03-25T22:19:03.851Z,6.10
2019-03-25T22:21:34.819Z,6.00
2019-03-25T22:24:05.678Z,6.00
2019-03-25T22:26:36.559Z,5.90
2019-03-25T22:29:07.723Z,5.80
2019-03-25T22:31:38.628Z,5.80
2019-03-25T22:34:09.514Z,5.60
2019-03-25T22:36:40.403Z,5.60
2019-03-25T22:39:11.286Z,5.60
2019-03-25T22:41:42.196Z,5.50
2019-03-25T22:44:13.122Z,5.50
2019-03-25T22:46:43.948Z,5.50
2019-03-25T22:49:14.835Z,5.40
2019-03-25T22:51:45.742Z,5.30
2019-03-25T22:54:16.650Z,5.30
2019-03-25T22:56:47.456Z,5.30
2019-03-25T22:59:18.365Z,5.30
2019-03-25T23:01:49.275Z,5.20
2019-03-25T23:04:20.192Z,5.30
2019-03-25T23:06:51.079Z,5.20
2019-03-25T23:09:21.988Z,5.10
2019-03-25T23:11:52.864Z,5.20
2019-03-25T23:14:23.759Z,5.20
2019-03-25T23:16:54.662Z,5.20
2019-03-25T23:19:25.595Z,5.10
2019-03-25T23:21:59.847Z,5.20
2019-03-25T23:24:30.792Z,5.10
2019-03-25T23:27:01.664Z,5.20
2019-03-25T23:29:32.587Z,5.30
2019-03-25T23:32:03.494Z,5.20
2019-03-25T23:34:34.393Z,5.20
2019-03-25T23:37:05.283Z,5.10
2019-03-25T23:39:36.228Z,5.00
2019-03-25T23:42:07.133Z,4.90
2019-03-25T23:44:38.068Z,4.90
2019-03-25T23:47:08.974Z,4.80
2019-03-25T23:49:39.809Z,4.80
2019-03-25T23:52:10.698Z,4.70
2019-03-25T23:54:41.544Z,4.80
2019-03-25T23:57:12.445Z,4.70
2019-03-25T23:59:43.338Z,4.70
